createdAt,value
2018-08-28T00:02:11.984Z,91.78
2018-08-28T00:05:16.834Z,92.51
2018-08-28T00:08:21.714Z,92.69
2018-08-28T00:11:26.555Z,92.63
2018-08-28T00:14:31.393Z,92.65
2018-08-28T00:17:36.495Z,92.62
2018-08-28T00:20:41.253Z,92.48
2018-08-28T00:23:46.152Z,92.56
2018-08-28T00:26:50.939Z,93.33
2018-08-28T00:29:55.849Z,93.01
2018-08-28T00:33:00.678Z,93.25
2018-08-28T00:36:05.446Z,93.49
2018-08-28T00:39:10.400Z,93.34
2018-08-28T00:42:15.235Z,93.49
2018-08-28T00:45:20.063Z,93.47
2018-08-28T00:48:24.802Z,93.46
2018-08-28T00:51:29.627Z,93.41
2018-08-28T00:54:34.388Z,93.78
2018-08-28T00:57:39.180Z,94.04
2018-08-28T01:00:44.011Z,94.25
2018-08-28T01:03:48.889Z,93.95
2018-08-28T01:06:53.819Z,94.75
2018-08-28T01:09:58.542Z,94.40
2018-08-28T01:13:03.366Z,94.81
2018-08-28T01:16:08.307Z,95.03
2018-08-28T01:19:13.102Z,94.79
2018-08-28T01:22:18.008Z,94.85
2018-08-28T01:25:23.058Z,94.74
2018-08-28T01:28:27.931Z,94.87
2018-08-28T01:31:32.718Z,95.11
2018-08-28T01:34:37.515Z,93.92
2018-08-28T01:37:42.381Z,94.32
2018-08-28T01:40:47.134Z,94.56
2018-08-28T01:43:52.025Z,93.84
2018-08-28T01:46:56.907Z,93.88
2018-08-28T01:50:01.799Z,94.78
2018-08-28T01:53:07.052Z,93.88
2018-08-28T01:56:11.860Z,94.14
2018-08-28T01:59:16.661Z,94.22
2018-08-28T02:02:21.485Z,93.92
2018-08-28T02:05:26.336Z,94.86
2018-08-28T02:08:31.069Z,94.37
2018-08-28T02:11:36.201Z,93.76
2018-08-28T02:14:40.922Z,93.81
2018-08-28T02:17:45.846Z,94.62
2018-08-28T02:20:50.595Z,93.83
2018-08-28T02:23:55.472Z,94.01
2018-08-28T02:27:00.356Z,94.21
2018-08-28T02:30:05.151Z,94.51
2018-08-28T02:33:10.083Z,94.32
2018-08-28T02:36:14.891Z,93.65
2018-08-28T02:39:19.600Z,94.39
2018-08-28T02:42:24.566Z,94.26
2018-08-28T02:45:29.383Z,94.20
2018-08-28T02:48:34.259Z,94.86
2018-08-28T02:51:39.217Z,95.30
2018-08-28T02:54:44.109Z,94.33
2018-08-28T02:57:49.148Z,94.45
2018-08-28T03:00:53.979Z,94.71
2018-08-28T03:03:58.781Z,94.37
2018-08-28T03:07:03.583Z,94.54
2018-08-28T03:10:17.219Z,94.32
2018-08-28T03:13:22.192Z,94.37
2018-08-28T03:16:27.003Z,94.67
2018-08-28T03:19:31.776Z,94.39
2018-08-28T03:22:36.467Z,95.33
2018-08-28T03:25:41.260Z,95.09
2018-08-28T03:28:46.096Z,94.67
2018-08-28T03:31:50.973Z,95.29
2018-08-28T03:34:55.809Z,95.27
2018-08-28T03:38:00.632Z,94.79
2018-08-28T03:41:05.668Z,94.90
2018-08-28T03:44:10.536Z,94.81
2018-08-28T03:47:15.365Z,95.25
2018-08-28T03:50:20.497Z,94.93
2018-08-28T03:53:25.281Z,94.55
2018-08-28T03:56:30.166Z,95.35
2018-08-28T03:59:34.936Z,95.06
2018-08-28T04:02:39.788Z,94.69
2018-08-28T04:05:44.606Z,94.77
2018-08-28T04:08:49.435Z,94.70
2018-08-28T04:11:54.163Z,94.76
2018-08-28T04:14:58.967Z,95.13
2018-08-28T04:18:03.807Z,94.82
2018-08-28T04:21:08.654Z,94.82
2018-08-28T04:24:13.412Z,95.65
2018-08-28T04:27:18.250Z,95.17
2018-08-28T04:30:23.148Z,95.33
2018-08-28T04:33:28.029Z,95.05
2018-08-28T04:36:33.040Z,95.40
2018-08-28T04:39:37.876Z,95.77
2018-08-28T04:42:42.723Z,95.25
2018-08-28T04:45:47.561Z,95.75
2018-08-28T04:48:52.484Z,95.28
2018-08-28T04:51:57.420Z,95.29
2018-08-28T04:55:02.351Z,95.23
2018-08-28T04:58:07.188Z,94.89
2018-08-28T05:01:11.950Z,94.26
2018-08-28T05:04:16.731Z,94.33
2018-08-28T05:07:21.539Z,94.88
2018-08-28T05:10:26.359Z,93.96
2018-08-28T05:13:31.259Z,93.49
2018-08-28T05:16:36.097Z,92.51
2018-08-28T05:19:40.927Z,91.88
2018-08-28T05:22:46.041Z,92.13
2018-08-28T05:25:50.858Z,91.78
2018-08-28T05:28:55.740Z,90.50
2018-08-28T05:32:00.603Z,86.82
2018-08-28T05:35:06.100Z,86.16
2018-08-28T05:38:11.025Z,83.60
2018-08-28T05:41:15.771Z,83.48
2018-08-28T05:44:20.601Z,82.96
2018-08-28T05:47:25.422Z,82.80
2018-08-28T05:50:30.279Z,81.40
2018-08-28T05:53:35.016Z,80.64
2018-08-28T05:56:39.786Z,80.92
2018-08-28T05:59:44.540Z,80.07
2018-08-28T06:02:49.449Z,79.17
2018-08-28T06:05:54.201Z,79.03
2018-08-28T06:08:59.200Z,79.33
2018-08-28T06:12:04.134Z,78.07
2018-08-28T06:15:09.123Z,76.11
2018-08-28T06:18:13.987Z,74.09
2018-08-28T06:21:18.817Z,75.39
2018-08-28T06:24:23.535Z,75.08
2018-08-28T06:27:28.347Z,74.51
2018-08-28T06:30:33.134Z,75.31
2018-08-28T06:33:38.029Z,74.94
2018-08-28T06:36:42.822Z,74.80
2018-08-28T06:39:47.667Z,73.89
2018-08-28T06:42:52.463Z,74.21
2018-08-28T06:45:57.210Z,73.97
2018-08-28T06:49:02.009Z,71.61
2018-08-28T06:52:07.067Z,69.79
2018-08-28T06:55:12.786Z,68.11
2018-08-28T06:58:17.633Z,68.84
2018-08-28T07:01:22.476Z,67.62
2018-08-28T07:04:27.364Z,67.25
2018-08-28T07:07:32.167Z,67.18
2018-08-28T07:10:36.978Z,66.60
2018-08-28T07:13:41.680Z,66.91
2018-08-28T07:16:47.396Z,65.40
2018-08-28T07:19:52.178Z,66.01
2018-08-28T07:22:57.125Z,65.34
2018-08-28T07:26:02.013Z,66.15
2018-08-28T07:29:06.808Z,64.23
2018-08-28T07:32:11.716Z,63.76
2018-08-28T07:35:16.482Z,62.67
2018-08-28T07:38:21.354Z,62.63
2018-08-28T07:41:26.124Z,62.29
2018-08-28T07:44:31.097Z,61.52
2018-08-28T07:47:35.911Z,60.13
2018-08-28T07:50:40.717Z,59.44
2018-08-28T07:53:45.582Z,60.33
2018-08-28T07:56:50.331Z,58.94
2018-08-28T07:59:55.094Z,59.69
2018-08-28T08:02:59.886Z,57.17
2018-08-28T08:06:04.709Z,56.26
2018-08-28T08:09:11.037Z,53.75
2018-08-28T08:12:15.964Z,53.75
2018-08-28T08:15:20.744Z,52.20
2018-08-28T08:18:25.590Z,51.56
2018-08-28T08:21:30.480Z,51.20
2018-08-28T08:24:35.279Z,51.86
2018-08-28T08:27:40.198Z,48.63
2018-08-28T08:30:45.028Z,48.34
2018-08-28T08:33:49.849Z,48.03
2018-08-28T08:36:54.699Z,46.26
2018-08-28T08:39:59.539Z,46.52
2018-08-28T08:43:04.389Z,44.79
2018-08-28T08:46:09.200Z,45.61
2018-08-28T08:49:14.028Z,44.69
2018-08-28T08:52:18.862Z,45.01
2018-08-28T08:55:23.623Z,42.84
2018-08-28T08:58:28.514Z,43.38
2018-08-28T09:01:33.462Z,42.72
2018-08-28T09:04:38.391Z,42.56
2018-08-28T09:07:43.131Z,43.34
2018-08-28T09:10:47.925Z,43.73
2018-08-28T09:13:52.705Z,42.22
2018-08-28T09:16:57.478Z,43.48
2018-08-28T09:20:02.291Z,42.11
2018-08-28T09:23:07.216Z,41.59
2018-08-28T09:26:12.039Z,41.43
2018-08-28T09:29:16.803Z,41.34
2018-08-28T09:32:21.769Z,41.13
2018-08-28T09:35:26.486Z,41.95
2018-08-28T09:38:31.364Z,41.68
2018-08-28T09:41:36.281Z,41.24
2018-08-28T09:44:41.196Z,39.84
2018-08-28T09:47:46.034Z,41.25
2018-08-28T09:50:50.789Z,40.03
2018-08-28T09:53:55.710Z,39.90
2018-08-28T09:57:00.477Z,39.30
2018-08-28T10:00:05.384Z,40.13
2018-08-28T10:03:10.410Z,41.22
2018-08-28T10:06:15.211Z,41.16
2018-08-28T10:09:20.136Z,41.16
2018-08-28T10:12:24.929Z,41.51
2018-08-28T10:15:29.759Z,41.32
2018-08-28T10:18:34.661Z,40.56
2018-08-28T10:21:39.828Z,40.06
2018-08-28T10:24:44.627Z,39.04
2018-08-28T10:27:49.520Z,39.72
2018-08-28T10:30:54.334Z,38.72
2018-08-28T10:33:59.128Z,39.19
2018-08-28T10:37:03.964Z,38.77
2018-08-28T10:40:08.788Z,40.14
2018-08-28T10:43:13.678Z,39.99
2018-08-28T10:46:18.653Z,39.76
2018-08-28T10:49:24.259Z,37.49
2018-08-28T10:52:29.177Z,37.32
2018-08-28T10:55:33.982Z,36.92
2018-08-28T10:58:38.959Z,37.13
2018-08-28T11:01:43.825Z,37.58
2018-08-28T11:04:49.091Z,38.19
2018-08-28T11:07:54.877Z,38.84
2018-08-28T11:10:59.761Z,37.56
2018-08-28T11:14:04.599Z,36.99
2018-08-28T11:17:09.978Z,37.13
2018-08-28T11:20:16.589Z,37.93
2018-08-28T11:23:21.452Z,36.96
2018-08-28T11:26:26.213Z,36.96
2018-08-28T11:29:31.007Z,36.48
2018-08-28T11:32:35.830Z,36.13
2018-08-28T11:35:40.644Z,36.39
2018-08-28T11:38:45.436Z,35.24
2018-08-28T11:41:50.294Z,36.94
2018-08-28T11:44:55.571Z,36.51
2018-08-28T11:48:00.381Z,36.52
2018-08-28T11:51:05.379Z,36.09
2018-08-28T11:54:10.137Z,34.79
2018-08-28T11:57:15.043Z,35.56
2018-08-28T12:00:19.855Z,35.88
2018-08-28T12:03:24.804Z,36.64
2018-08-28T12:06:29.581Z,34.09
2018-08-28T12:09:34.451Z,34.68
2018-08-28T12:12:39.534Z,36.03
2018-08-28T12:15:44.339Z,34.48
2018-08-28T12:18:49.188Z,35.50
2018-08-28T12:21:53.939Z,36.32
2018-08-28T12:24:58.807Z,36.44
2018-08-28T12:28:03.857Z,35.39
2018-08-28T12:31:08.648Z,35.46
2018-08-28T12:34:13.474Z,34.65
2018-08-28T12:37:18.280Z,33.80
2018-08-28T12:40:23.134Z,33.75
2018-08-28T12:43:27.913Z,34.90
2018-08-28T12:46:32.738Z,33.70
2018-08-28T12:49:37.612Z,33.57
2018-08-28T12:52:42.754Z,32.23
2018-08-28T12:55:47.544Z,33.16
2018-08-28T12:58:53.359Z,32.57
2018-08-28T13:01:58.120Z,33.64
2018-08-28T13:05:02.917Z,32.31
2018-08-28T13:08:08.192Z,32.71
2018-08-28T13:11:12.917Z,32.47
2018-08-28T13:14:17.840Z,33.46
2018-08-28T13:17:22.785Z,33.49
2018-08-28T13:20:27.584Z,31.72
2018-08-28T13:23:32.409Z,32.74
2018-08-28T13:26:37.226Z,33.25
2018-08-28T13:29:42.005Z,33.33
2018-08-28T13:32:46.869Z,32.94
2018-08-28T13:35:51.651Z,33.18
2018-08-28T13:38:56.508Z,32.42
2018-08-28T13:42:01.317Z,32.82
2018-08-28T13:45:06.367Z,31.84
2018-08-28T13:48:11.266Z,32.18
2018-08-28T13:51:16.274Z,32.15
2018-08-28T13:54:21.219Z,31.10
2018-08-28T13:57:26.129Z,31.65
2018-08-28T14:00:30.934Z,31.08
2018-08-28T14:03:35.980Z,32.34
2018-08-28T14:06:40.855Z,31.66
2018-08-28T14:09:45.711Z,31.67
2018-08-28T14:12:50.536Z,31.81
2018-08-28T14:15:55.484Z,32.41
2018-08-28T14:19:00.413Z,31.15
2018-08-28T14:22:05.327Z,30.80
2018-08-28T14:25:10.262Z,30.65
2018-08-28T14:28:15.069Z,31.02
2018-08-28T14:31:19.818Z,31.16
2018-08-28T14:34:24.688Z,29.70
2018-08-28T14:37:29.540Z,30.49
2018-08-28T14:40:34.350Z,29.85
2018-08-28T14:43:39.228Z,30.82
2018-08-28T14:46:44.029Z,29.63
2018-08-28T14:49:49.156Z,29.99
2018-08-28T14:52:54.074Z,30.50
2018-08-28T14:55:58.895Z,31.42
2018-08-28T14:59:03.905Z,31.35
2018-08-28T15:02:08.857Z,31.16
2018-08-28T15:05:13.757Z,31.01
2018-08-28T15:08:18.573Z,30.74
2018-08-28T15:11:23.456Z,30.43
2018-08-28T15:14:28.375Z,30.34
2018-08-28T15:17:33.324Z,30.61
2018-08-28T15:20:38.116Z,31.04
2018-08-28T15:23:43.174Z,30.20
2018-08-28T15:26:47.967Z,30.37
2018-08-28T15:29:52.961Z,30.10
2018-08-28T15:32:57.866Z,30.02
2018-08-28T15:36:02.932Z,31.31
2018-08-28T15:39:08.424Z,30.39
2018-08-28T15:42:13.321Z,30.29
2018-08-28T15:45:18.228Z,30.59
2018-08-28T15:48:23.206Z,30.97
2018-08-28T15:51:28.294Z,30.50
2018-08-28T15:54:32.929Z,32.01
2018-08-28T15:57:37.985Z,30.96
2018-08-28T16:00:42.832Z,32.22
2018-08-28T16:03:47.702Z,32.45
2018-08-28T16:06:53.017Z,31.06
2018-08-28T16:09:57.821Z,31.41
2018-08-28T16:13:02.703Z,32.36
2018-08-28T16:16:07.762Z,33.56
2018-08-28T16:19:12.691Z,33.61
2018-08-28T16:22:21.840Z,34.58
2018-08-28T16:25:26.761Z,34.61
2018-08-28T16:28:31.798Z,34.86
2018-08-28T16:31:36.902Z,35.47
2018-08-28T16:34:41.728Z,35.93
2018-08-28T16:37:48.205Z,36.20
2018-08-28T16:40:52.993Z,36.09
2018-08-28T16:43:57.786Z,36.32
2018-08-28T16:47:02.621Z,39.26
2018-08-28T16:50:07.573Z,38.99
2018-08-28T16:53:12.363Z,38.73
2018-08-28T16:56:17.273Z,39.63
2018-08-28T16:59:22.087Z,39.58
2018-08-28T17:02:26.986Z,39.72
2018-08-28T17:05:31.825Z,39.63
2018-08-28T17:08:36.668Z,39.44
2018-08-28T17:11:41.416Z,39.28
2018-08-28T17:14:46.381Z,41.17
2018-08-28T17:17:51.156Z,40.95
2018-08-28T17:20:56.000Z,40.28
2018-08-28T17:24:00.772Z,40.24
2018-08-28T17:27:05.843Z,39.79
2018-08-28T17:30:37.416Z,40.60
2018-08-28T17:33:45.081Z,41.83
2018-08-28T17:36:50.052Z,43.41
2018-08-28T17:39:55.060Z,43.79
2018-08-28T17:42:59.908Z,44.40
2018-08-28T17:46:05.108Z,44.30
2018-08-28T17:49:10.105Z,45.65
2018-08-28T17:52:14.885Z,44.55
2018-08-28T17:55:19.756Z,44.99
2018-08-28T17:58:24.554Z,45.06
2018-08-28T18:01:29.432Z,45.84
2018-08-28T18:04:34.263Z,47.22
2018-08-28T18:07:39.165Z,48.61
2018-08-28T18:10:44.238Z,48.42
2018-08-28T18:13:49.018Z,48.56
2018-08-28T18:16:53.854Z,48.22
2018-08-28T18:19:58.778Z,49.22
2018-08-28T18:23:03.684Z,50.28
2018-08-28T18:26:08.840Z,52.54
2018-08-28T18:29:13.743Z,52.46
2018-08-28T18:32:18.616Z,54.00
2018-08-28T18:35:23.486Z,54.89
2018-08-28T18:38:28.364Z,54.68
2018-08-28T18:41:33.304Z,55.14
2018-08-28T18:44:38.159Z,55.06
2018-08-28T18:47:42.998Z,56.21
2018-08-28T18:50:47.809Z,55.92
2018-08-28T18:53:52.804Z,55.98
2018-08-28T18:56:57.588Z,57.60
2018-08-28T19:00:02.822Z,57.30
2018-08-28T19:03:07.666Z,57.55
2018-08-28T19:06:12.606Z,57.75
2018-08-28T19:09:17.746Z,58.77
2018-08-28T19:12:22.737Z,58.70
2018-08-28T19:15:28.545Z,59.56
2018-08-28T19:18:33.909Z,59.36
2018-08-28T19:21:38.769Z,59.35
2018-08-28T19:24:43.672Z,61.29
2018-08-28T19:27:48.618Z,61.33
2018-08-28T19:30:53.425Z,62.14
2018-08-28T19:33:58.281Z,61.43
2018-08-28T19:37:03.314Z,61.82
2018-08-28T19:40:08.339Z,62.68
2018-08-28T19:43:13.502Z,62.75
2018-08-28T19:46:18.596Z,63.95
2018-08-28T19:49:23.509Z,63.38
2018-08-28T19:52:28.691Z,63.79
2018-08-28T19:55:33.749Z,65.00
2018-08-28T19:58:38.760Z,64.47
2018-08-28T20:01:44.717Z,64.57
2018-08-28T20:04:51.001Z,64.64
2018-08-28T20:07:55.918Z,64.97
2018-08-28T20:11:01.044Z,64.82
2018-08-28T20:14:06.054Z,65.33
2018-08-28T20:17:10.903Z,65.19
2018-08-28T20:20:15.846Z,66.07
2018-08-28T20:23:21.019Z,66.27
2018-08-28T20:26:25.889Z,66.52
2018-08-28T20:29:30.810Z,67.12
2018-08-28T20:32:35.715Z,66.82
2018-08-28T20:35:40.558Z,66.10
2018-08-28T20:38:45.680Z,66.60
2018-08-28T20:41:50.686Z,68.08
2018-08-28T20:44:56.181Z,68.76
2018-08-28T20:48:01.220Z,68.27
2018-08-28T20:51:07.253Z,69.30
2018-08-28T20:54:12.196Z,68.96
2018-08-28T20:57:17.188Z,68.62
2018-08-28T21:00:22.761Z,68.76
2018-08-28T21:03:28.781Z,69.12
2018-08-28T21:06:33.735Z,69.13
2018-08-28T21:09:38.675Z,69.01
2018-08-28T21:12:43.632Z,69.63
2018-08-28T21:15:48.538Z,70.29
2018-08-28T21:18:56.727Z,69.96
2018-08-28T21:22:02.637Z,69.57
2018-08-28T21:25:09.088Z,70.76
2018-08-28T21:28:13.940Z,71.22
2018-08-28T21:31:18.986Z,70.68
2018-08-28T21:34:23.803Z,70.73
2018-08-28T21:37:28.640Z,70.93
2018-08-28T21:40:33.508Z,71.80
2018-08-28T21:43:38.577Z,72.03
2018-08-28T21:46:43.412Z,72.47
2018-08-28T21:49:48.258Z,72.35
2018-08-28T21:52:53.084Z,73.45
2018-08-28T21:55:57.910Z,73.01
2018-08-28T21:59:02.800Z,73.21
2018-08-28T22:02:07.773Z,72.82
2018-08-28T22:05:12.615Z,73.06
2018-08-28T22:08:17.472Z,73.66
2018-08-28T22:11:22.421Z,74.58
2018-08-28T22:14:27.268Z,74.37
2018-08-28T22:17:32.138Z,74.03
2018-08-28T22:20:37.141Z,75.01
2018-08-28T22:23:42.022Z,75.94
2018-08-28T22:26:46.883Z,75.69
2018-08-28T22:29:51.854Z,75.65
2018-08-28T22:32:56.887Z,76.17
2018-08-28T22:36:01.748Z,76.44
2018-08-28T22:39:07.717Z,76.73
2018-08-28T22:42:12.596Z,76.23
2018-08-28T22:45:17.394Z,76.65
2018-08-28T22:48:22.228Z,75.96
2018-08-28T22:51:27.175Z,76.79
2018-08-28T22:54:32.038Z,76.73
2018-08-28T22:57:36.823Z,77.05
2018-08-28T23:00:41.609Z,77.31
2018-08-28T23:03:46.462Z,76.46
2018-08-28T23:06:51.305Z,77.01
2018-08-28T23:09:56.232Z,76.96
2018-08-28T23:13:01.317Z,77.65
2018-08-28T23:16:06.141Z,77.17
2018-08-28T23:19:11.003Z,77.80
2018-08-28T23:22:15.887Z,78.11
2018-08-28T23:25:20.704Z,78.37
2018-08-28T23:28:25.647Z,78.71
2018-08-28T23:31:30.495Z,78.72
2018-08-28T23:34:35.295Z,78.55
2018-08-28T23:37:40.192Z,79.20
2018-08-28T23:40:45.242Z,79.53
2018-08-28T23:43:50.027Z,80.02
2018-08-28T23:46:54.873Z,80.00
2018-08-28T23:49:59.677Z,80.80
2018-08-28T23:53:04.593Z,80.52
2018-08-28T23:56:09.593Z,81.08
2018-08-28T23:59:14.433Z,81.29
